Latest Weather Observations for Coonamble

IDN60801

Issued at 11:34 pm EDT Saturday 20 December 2014 (issued every 30 minutes, with the page automatically refreshed every 10 minutes)

About weather observations | Map of weather stations | Latest weather observations for NSW | Other Formats
Station Details ID: 051161 Name: COONAMBLE AIRPORT AWS Lat: -30.98 Lon: 148.38 Height: 181.3 m
Data from the previous 72 hours. | See also: Recent months at Coonamble
Date/Time
EDT
Temp
°C
App
Temp
°C
Dew
Point
Rel
Hum
%
Delta-T
°C
Wind Press
QNH
hPa
Press
MSL
hPa
Rain
since 9 am
mm
Dir
 
Spd
km/h
Gust
km/h
Spd
kts
Gust
kts
20/11:30pm 24.9 20.6 3.0 24 10.7 S 15 19 8 10 1013.5 1012.5 0.0
20/11:00pm 25.2 20.9 3.2 24 10.8 S 15 19 8 10 1013.4 1012.4 0.0
20/10:30pm 24.8 21.2 2.9 24 10.7 SSW 11 13 6 7 1013.4 1012.4 0.0
20/10:00pm 24.0 20.7 2.2 24 10.5 SSW 9 11 5 6 1013.3 1012.3 0.0
20/09:30pm 25.0 21.7 2.4 23 11.0 SSW 9 11 5 6 1013.0 1012.0 0.0
20/09:00pm 26.3 22.6 2.3 21 11.7 S 11 13 6 7 1012.7 1011.7 0.0
20/08:30pm 27.2 23.5 2.3 20 12.2 S 11 13 6 7 1012.5 1011.5 0.0
20/08:00pm 29.0 24.7 0.7 16 13.7 S 13 17 7 9 1012.1 1011.1 0.0
20/07:30pm 30.4 25.3 0.9 15 14.5 SSE 17 24 9 13 1011.8 1010.8 0.0
20/07:00pm 31.2 25.8 1.5 15 14.8 S 19 28 10 15 1011.3 1010.4 0.0
20/06:30pm 31.7 26.6 1.0 14 15.2 SW 17 22 9 12 1011.0 1010.1 0.0
20/06:00pm 31.9 26.5 1.1 14 15.3 S 19 28 10 15 1011.1 1010.2 0.0
20/05:30pm 31.7 26.6 1.0 14 15.2 SSE 17 28 9 15 1010.9 1010.0 0.0
20/05:00pm 31.8 27.0 0.0 13 15.5 S 15 28 8 15 1011.0 1010.1 0.0
20/04:30pm 31.8 27.5 1.0 14 15.3 S 13 22 7 12 1011.4 1010.5 0.0
20/04:00pm 31.8 26.4 -1.1 12 15.8 S 17 28 9 15 1011.9 1010.9 0.0
20/03:30pm 31.2 26.2 -1.5 12 15.5 SSW 15 30 8 16 1012.4 1011.4 0.0
20/03:00pm 31.1 26.4 -1.6 12 15.4 SSW 13 24 7 13 1012.9 1011.9 0.0
20/02:30pm 31.0 25.7 -0.6 13 15.2 SW 17 30 9 16 1013.1 1012.1 0.0
20/02:00pm 30.7 26.7 0.2 14 14.8 SSW 11 19 6 10 1013.6 1012.6 0.0
20/01:30pm 30.6 25.8 0.1 14 14.8 SW 15 50 8 27 1013.8 1012.8 0.0
20/01:00pm 28.9 23.6 -0.3 15 13.9 SSW 17 28 9 15 1014.5 1013.6 0.0
20/12:30pm 28.6 23.3 -0.5 15 13.8 SSE 17 24 9 13 1014.7 1013.8 0.0
20/12:00pm 28.1 24.4 2.3 19 12.8 W 11 19 6 10 1015.1 1014.2 0.0
20/11:30am 27.6 24.4 3.3 21 12.2 SW 9 20 5 11 1015.6 1014.7 0.0
20/11:00am 27.0 23.1 1.4 19 12.4 WSW 11 19 6 10 1015.8 1014.9 0.0
20/10:30am 25.9 24.0 6.5 29 10.2 NE 6 13 3 7 1015.9 1015.0 0.0
20/10:00am 24.7 23.1 8.2 35 8.9 NW 6 15 3 8 1015.8 1014.9 0.0
20/09:30am 23.8 21.7 9.8 41 7.7 ENE 11 17 6 9 1015.9 1015.0 0.0
20/09:00am 22.7 20.0 9.1 42 7.3 ENE 13 17 7 9 1015.6 1014.7 0.0
20/08:30am 21.5 20.3 9.4 46 6.5 SE 6 9 3 5 1015.5 1014.6 0.0
20/08:00am 19.8 18.1 9.7 52 5.4 SSE 9 13 5 7 1015.3 1014.4 0.0
20/07:30am 18.1 15.7 10.0 59 4.3 SSE 13 15 7 8 1015.1 1014.2 0.0
20/07:00am 16.7 14.8 9.1 61 4.0 SSE 9 11 5 6 1014.8 1013.9 0.0
20/06:30am 14.7 12.1 7.7 63 3.5 SSE 11 17 6 9 1014.5 1013.6 0.0
20/06:00am 14.2 11.7 6.6 60 3.7 SE 9 11 5 6 1014.2 1013.2 0.0
20/05:30am 15.1 11.6 5.3 52 4.7 SSE 13 17 7 9 1014.0 1013.0 0.0
20/05:00am 15.5 11.4 2.3 41 5.9 S 13 17 7 9 1013.7 1012.7 0.0
20/04:30am 16.1 11.2 -0.2 33 7.0 S 15 19 8 10 1013.5 1012.5 0.0
20/04:00am 16.3 11.3 -1.3 30 7.4 S 15 19 8 10 1013.5 1012.5 0.0
20/03:30am 16.5 11.8 -1.6 29 7.6 S 13 17 7 9 1013.5 1012.5 0.0
20/03:00am 17.2 12.2 -1.4 28 7.9 S 15 17 8 9 1013.6 1012.6 0.0
20/02:30am 17.9 12.8 -1.9 26 8.3 SSE 15 19 8 10 1014.0 1013.0 0.0
20/02:00am 18.4 13.3 -2.0 25 8.6 S 15 19 8 10 1014.1 1013.1 0.0
20/01:30am 18.8 13.7 -1.6 25 8.7 S 15 19 8 10 1014.2 1013.2 0.0
20/01:00am 19.7 14.2 -2.0 23 9.3 S 17 20 9 11 1014.4 1013.5 0.0
20/12:30am 20.3 15.2 -2.1 22 9.6 S 15 17 8 9 1014.6 1013.7 0.0
20/12:00am 20.9 15.8 -2.2 21 9.9 S 15 20 8 11 1014.6 1013.7 0.0
 
Date/Time
EDT
Temp
°C
App
Temp
°C
Dew
Point
Rel
Hum
%
Delta-T
°C
Wind Press
QNH
hPa
Press
MSL
hPa
Rain
since 9 am
mm
Dir
 
Spd
km/h
Gust
km/h
Spd
kts
Gust
kts
19/11:30pm 22.1 16.5 -2.6 19 10.7 S 17 20 9 11 1014.7 1013.8 0.0
19/11:00pm 22.7 17.1 -2.8 18 11.0 S 17 22 9 12 1014.6 1013.7 0.0
19/10:30pm 22.7 16.9 -4.4 16 11.3 S 17 20 9 11 1014.4 1013.5 0.0
19/10:00pm 23.0 17.2 -5.0 15 11.6 S 17 19 9 10 1014.1 1013.1 0.0
19/09:30pm 23.5 18.1 -4.6 15 11.8 S 15 19 8 10 1013.7 1012.7 0.0
19/09:00pm 24.4 19.3 -4.8 14 12.3 S 13 19 7 10 1013.5 1012.5 0.0
19/08:30pm 25.5 19.6 -6.0 12 13.1 S 17 22 9 12 1013.1 1012.1 0.0
19/08:00pm 27.1 19.8 -5.9 11 14.0 S 24 32 13 17 1012.7 1011.7 0.0
19/07:30pm 28.4 21.2 -4.9 11 14.5 SSW 24 32 13 17 1012.5 1011.5 0.0
19/07:00pm 29.4 22.3 -4.1 11 15.0 SSW 24 32 13 17 1012.2 1011.2 0.0
19/06:30pm 29.8 22.8 -3.8 11 15.1 SSW 24 35 13 19 1011.7 1010.7 0.0
19/06:00pm 30.3 23.8 -2.2 12 15.1 SSW 22 33 12 18 1011.3 1010.4 0.0
19/05:30pm 30.0 22.2 -3.6 11 15.2 SW 28 39 15 21 1011.4 1010.5 0.0
19/05:00pm 30.8 22.9 -1.9 12 15.3 SW 30 43 16 23 1011.4 1010.5 0.0
19/04:37pm 30.7 22.8 -1.9 12 15.3 SW 30 48 16 26 1011.5 1010.6 0.0
19/04:30pm 30.4 23.7 -1.1 13 14.9 SW 24 39 13 21 1011.5 1010.6 0.0
19/04:00pm 30.2 23.5 -1.2 13 14.8 SW 24 39 13 21 1011.9 1010.9 0.0
19/03:30pm 29.7 23.7 -1.6 13 14.6 SW 20 33 11 18 1012.2 1011.2 0.0
19/03:00pm 29.3 22.9 0.9 16 13.8 SSW 24 37 13 20 1012.5 1011.5 0.0
19/02:30pm 29.1 22.2 -0.1 15 13.9 WSW 26 41 14 22 1012.8 1011.8 0.0
19/02:00pm 29.2 23.0 -0.1 15 14.0 SSW 22 33 12 18 1013.0 1012.0 0.0
19/01:30pm 29.7 23.9 2.1 17 13.8 SSW 22 39 12 21 1013.3 1012.3 0.0
19/01:00pm 28.5 23.3 2.7 19 12.9 SSW 19 33 10 18 1013.7 1012.7 0.0
19/12:30pm 28.8 22.8 3.6 20 12.8 S 24 37 13 20 1013.8 1012.8 0.0
19/12:00pm 27.3 20.9 3.1 21 12.1 SSW 26 39 14 21 1014.1 1013.1 0.0
19/11:30am 27.6 21.2 3.3 21 12.2 SSW 26 39 14 21 1014.0 1013.0 0.0
19/11:00am 26.9 20.8 2.7 21 12.0 SSW 24 37 13 20 1013.8 1012.8 0.0
19/10:30am 26.7 21.0 2.6 21 11.9 SSW 22 32 12 17 1013.8 1012.8 0.0
19/10:00am 25.9 20.1 4.4 25 10.9 S 24 33 13 18 1013.7 1012.7 0.0
19/09:30am 25.6 19.4 4.1 25 10.8 SSW 26 35 14 19 1013.6 1012.6 0.0
19/09:00am 24.8 18.5 4.0 26 10.4 S 26 32 14 17 1013.4 1012.4 0.0
19/08:30am 23.3 16.9 3.3 27 9.8 S 26 32 14 17 1013.2 1012.2 0.0
19/08:00am 22.5 16.0 2.6 27 9.5 S 26 37 14 20 1013.0 1012.0 0.0
19/07:30am 21.4 16.1 3.1 30 8.8 SSW 20 28 11 15 1012.4 1011.4 0.0
19/07:00am 19.6 15.2 2.5 32 8.0 SSW 15 19 8 10 1012.1 1011.1 0.0
19/06:30am 17.7 14.4 2.5 36 7.0 S 9 11 5 6 1011.7 1010.7 0.0
19/06:00am 17.6 13.8 1.6 34 7.2 S 11 13 6 7 1011.2 1010.3 0.0
19/05:30am 18.9 13.9 1.4 31 8.0 S 17 20 9 11 1010.7 1009.8 0.0
19/05:00am 19.5 14.4 1.0 29 8.4 S 17 24 9 13 1010.5 1009.6 0.0
19/04:30am 19.6 14.0 0.1 27 8.7 SSW 19 22 10 12 1010.2 1009.3 0.0
19/04:00am 19.9 14.6 -0.7 25 9.1 SSW 17 22 9 12 1009.9 1009.0 0.0
19/03:30am 19.5 14.5 -1.0 25 8.9 SSW 15 19 8 10 1009.9 1009.0 0.0
19/03:00am 18.9 13.9 -1.0 26 8.6 SW 15 19 8 10 1009.9 1009.0 0.0
19/02:30am 16.8 12.2 -1.3 29 7.6 WSW 13 17 7 9 1009.9 1009.0 0.0
19/02:00am 17.9 13.2 -1.9 26 8.4 W 13 17 7 9 1009.7 1008.8 0.0
19/01:30am 16.4 11.7 -2.1 28 7.6 NW 13 17 7 9 1009.5 1008.5 0.0
19/01:00am 18.9 13.8 -2.1 24 8.9 NNW 15 19 8 10 1009.3 1008.3 0.0
19/12:30am 19.3 14.6 -1.7 24 9.0 NNW 13 15 7 8 1009.4 1008.4 0.0
19/12:00am 19.8 15.2 -1.3 24 9.2 NNW 13 17 7 9 1009.5 1008.5 0.0
 
Date/Time
EDT
Temp
°C
App
Temp
°C
Dew
Point
Rel
Hum
%
Delta-T
°C
Wind Press
QNH
hPa
Press
MSL
hPa
Rain
since 9 am
mm
Dir
 
Spd
km/h
Gust
km/h
Spd
kts
Gust
kts
18/11:30pm 19.6 14.6 -1.5 24 9.1 NNW 15 17 8 9 1009.4 1008.4 0.0
18/11:00pm 21.3 16.0 -0.6 23 9.8 NNW 17 19 9 10 1009.5 1008.5 0.0
18/10:30pm 22.5 17.5 -0.9 21 10.5 NNW 15 19 8 10 1009.5 1008.5 0.0
18/10:00pm 24.1 19.5 -0.9 19 11.4 N 13 17 7 9 1009.3 1008.3 0.0
18/09:30pm 25.0 20.4 -0.9 18 11.8 N 13 15 7 8 1009.1 1008.1 0.0
18/09:00pm 24.9 20.7 -1.0 18 11.8 N 11 15 6 8 1009.0 1008.0 0.0
18/08:30pm 25.6 21.4 -1.2 17 12.2 N 11 13 6 7 1008.7 1007.7 0.0
18/08:00pm 26.2 21.9 -1.6 16 12.7 N 11 11 6 6 1008.5 1007.5 0.0
18/07:30pm 26.8 23.3 -1.1 16 12.9 NW 7 9 4 5 1008.1 1007.1 0.0
18/07:00pm 27.4 23.1 -1.5 15 13.3 W 11 15 6 8 1007.9 1006.9 0.0
18/06:30pm 28.2 23.0 -2.8 13 14.0 WSW 15 20 8 11 1007.7 1006.7 0.0
18/06:00pm 28.3 22.9 -1.7 14 13.9 W 17 22 9 12 1007.6 1006.6 0.0
18/05:30pm 28.8 23.1 -0.4 15 13.8 W 19 28 10 15 1007.7 1006.7 0.0
18/05:00pm 28.9 22.8 -2.3 13 14.3 W 20 28 11 15 1007.9 1006.9 0.0
18/04:30pm 29.0 23.2 -0.2 15 13.9 W 20 28 11 15 1008.2 1007.2 0.0
18/04:00pm 29.0 23.9 0.7 16 13.7 W 17 24 9 13 1008.6 1007.6 0.0
18/03:30pm 28.3 22.8 0.9 17 13.2 WSW 19 26 10 14 1008.5 1007.5 0.0
18/03:00pm 27.5 23.5 6.8 27 11.1 SW 17 24 9 13 1008.8 1007.8 0.0
18/02:30pm 27.6 22.7 4.0 22 12.0 WSW 19 24 10 13 1008.7 1007.7 0.0
18/02:00pm 27.9 22.6 6.6 26 11.4 SW 24 32 13 17 1008.5 1007.5 0.0
18/01:30pm 28.0 22.7 6.7 26 11.4 SW 24 30 13 16 1008.4 1007.4 0.0
18/01:00pm 27.7 22.8 8.6 30 10.5 SW 24 32 13 17 1008.2 1007.2 0.0
18/12:30pm 27.5 23.7 11.1 36 9.4 SW 22 28 12 15 1008.1 1007.1 0.0
18/12:00pm 27.4 23.1 10.6 35 9.6 SW 24 32 13 17 1007.8 1006.8 0.0
18/11:30am 27.4 24.5 11.0 36 9.4 WSW 17 24 9 13 1007.6 1006.6 0.0
18/11:00am 27.7 24.8 10.9 35 9.6 WSW 17 20 9 11 1007.5 1006.5 0.0
18/10:30am 27.4 25.9 11.8 38 9.0 WSW 11 15 6 8 1007.1 1006.1 0.0
18/10:00am 26.8 26.3 12.1 40 8.6 SSW 6 11 3 6 1006.8 1005.8 0.0
18/09:30am 26.3 24.8 12.0 41 8.3 S 11 13 6 7 1006.5 1005.5 0.0
18/09:00am 25.9 24.4 12.0 42 8.0 S 11 15 6 8 1006.4 1005.4 0.0
18/08:30am 25.9 24.1 12.0 42 8.0 SSE 13 15 7 8 1006.2 1005.2 0.0
18/08:00am 25.0 23.3 12.6 46 7.2 SE 13 17 7 9 1005.9 1004.9 0.0
18/07:30am 23.9 22.4 11.9 47 6.9 SE 11 13 6 7 1005.6 1004.7 0.0
18/07:00am 23.0 21.2 10.8 46 6.8 S 11 13 6 7 1005.6 1004.7 0.0
18/06:30am 22.2 20.0 9.4 44 6.9 SSE 11 17 6 9 1005.6 1004.7 0.0
18/06:00am 22.0 19.9 8.2 41 7.3 S 9 11 5 6 1005.4 1004.5 0.0
18/05:30am 21.5 21.1 8.4 43 6.9 CALM 0 0 0 0 1004.7 1003.8 0.0
18/05:00am 21.5 19.7 7.3 40 7.4 SSE 6 7 3 4 1004.0 1003.0 0.0
18/04:30am 22.4 20.4 7.0 37 8.0 SSE 7 9 4 5 1003.9 1002.9 0.0
18/04:00am 22.8 20.8 6.1 34 8.6 SSW 6 7 3 4 1003.9 1002.9 0.0
18/03:30am 23.4 21.3 6.7 34 8.7 S 7 7 4 4 1003.8 1002.8 0.0
18/03:00am 23.1 21.0 6.8 35 8.5 S 7 11 4 6 1003.9 1002.9 0.0
18/02:30am 21.9 19.9 6.2 36 8.0 W 6 7 3 4 1004.0 1003.0 0.0
18/02:00am 22.6 21.5 6.8 36 8.2 NE 2 6 1 3 1004.6 1003.6 0.0
18/01:30am 22.7 21.7 5.6 33 8.7 CALM 0 0 0 0 1004.7 1003.8 0.0
18/01:00am 22.4 20.3 5.8 34 8.5 SSE 6 9 3 5 1004.8 1003.9 0.0
18/12:30am 24.6 21.4 4.9 28 10.0 ESE 11 13 6 7 1004.7 1003.8 0.0
18/12:00am 25.3 21.6 4.4 26 10.6 SSE 13 15 7 8 1005.0 1004.1 0.0

Other Formats:

Comma delimited format used in spreadsheet applications
http://www.bom.gov.au/fwo/IDN60801/IDN60801.95718.axf

JavaScript Object Notation format (JSON) in row-major order
http://www.bom.gov.au/fwo/IDN60801/IDN60801.95718.json